Time;durP1;ratioP1;P1;durP2;ratioP2;P2;SDS_P1;SDS_P2;PMS_P1;PMS_P2;Temp;Humidity;BMP_temperature;BMP_pressure;BME280_temperature;BME280_humidity;BME280_pressure;Samples;Min_cycle;Max_cycle;Signal;HPM_P1;HPM_P2
2021/05/08 00:00:15;;;;;;;10.02;4.90;;;4.60;99.90;;;;;;3532012;40;20872;-59
2021/05/08 00:02:41;;;;;;;8.93;4.70;;;;;;;;;;3532332;40;20562;-59
2021/05/08 00:05:08;;;;;;;12.10;5.25;;;4.20;99.90;;;;;;3532692;40;20054;-59
2021/05/08 00:07:33;;;;;;;10.63;4.95;;;4.60;99.90;;;;;;3530810;40;20031;-59
2021/05/08 00:09:59;;;;;;;10.48;4.60;;;4.40;99.90;;;;;;3532356;40;20045;-59
2021/05/08 00:12:25;;;;;;;11.43;5.10;;;4.40;99.90;;;;;;3532487;40;20043;-59
2021/05/08 00:14:50;;;;;;;7.82;5.13;;;4.40;99.90;;;;;;3532288;40;20051;-59
2021/05/08 00:17:16;;;;;;;10.55;5.53;;;;;;;;;;3532210;40;20428;-59
2021/05/08 00:19:43;;;;;;;8.85;5.07;;;;;;;;;;3531524;40;20100;-59
2021/05/08 00:22:08;;;;;;;8.15;4.80;;;4.80;99.90;;;;;;3532485;40;20456;-59
2021/05/08 00:24:34;;;;;;;7.57;4.85;;;4.50;99.90;;;;;;3532260;40;20101;-59
2021/05/08 00:26:59;;;;;;;9.60;5.20;;;4.60;99.90;;;;;;3532056;40;20038;-59
2021/05/08 00:29:25;;;;;;;15.13;6.25;;;4.70;99.90;;;;;;3532144;40;20035;-59
2021/05/08 00:31:51;;;;;;;7.07;4.88;;;4.60;99.90;;;;;;3530423;40;20047;-60
2021/05/08 00:34:17;;;;;;;7.65;4.90;;;5.20;99.90;;;;;;3531944;40;20041;-59
2021/05/08 00:36:42;;;;;;;10.55;5.35;;;4.60;99.90;;;;;;3532754;40;20031;-60
2021/05/08 00:39:08;;;;;;;10.13;4.95;;;4.70;99.90;;;;;;3530742;40;20031;-60
2021/05/08 00:41:36;;;;;;;8.68;4.78;;;4.60;99.90;;;;;;3532867;40;20035;-59
2021/05/08 00:44:02;;;;;;;12.80;5.30;;;4.60;99.90;;;;;;3531312;40;20050;-68
2021/05/08 00:46:28;;;;;;;10.73;4.80;;;4.50;99.90;;;;;;3533463;40;20027;-68
2021/05/08 00:48:57;;;;;;;9.93;4.97;;;4.50;99.90;;;;;;3532615;40;20507;-67
2021/05/08 00:51:23;;;;;;;9.80;5.00;;;4.50;99.90;;;;;;3531705;40;20043;-67
2021/05/08 00:53:49;;;;;;;9.25;5.53;;;6.60;99.90;;;;;;3532658;40;20059;-68
2021/05/08 00:56:16;;;;;;;7.20;4.95;;;4.40;99.90;;;;;;3532181;40;20172;-68
2021/05/08 00:58:42;;;;;;;8.77;4.90;;;4.30;99.90;;;;;;3530511;40;20507;-68
2021/05/08 01:01:08;;;;;;;8.45;4.85;;;4.20;99.90;;;;;;3538955;40;20674;-68
2021/05/08 01:03:34;;;;;;;8.52;4.85;;;4.10;99.90;;;;;;3532536;40;20035;-67
2021/05/08 01:06:01;;;;;;;7.47;4.90;;;4.20;99.90;;;;;;3539021;40;20320;-68
2021/05/08 01:08:27;;;;;;;7.40;4.32;;;4.10;99.90;;;;;;3531039;40;20046;-67
2021/05/08 01:10:54;;;;;;;8.38;4.75;;;4.40;99.90;;;;;;3538771;40;20053;-68
2021/05/08 01:13:21;;;;;;;7.40;4.65;;;4.80;99.90;;;;;;3530587;40;20049;-68
2021/05/08 01:15:48;;;;;;;8.60;4.75;;;4.60;99.90;;;;;;3539027;40;20376;-68
2021/05/08 01:18:14;;;;;;;9.63;5.03;;;4.60;99.90;;;;;;3530916;40;20439;-67
2021/05/08 01:20:42;;;;;;;6.85;4.45;;;4.60;99.90;;;;;;3539226;40;20067;-67
2021/05/08 01:23:08;;;;;;;7.97;4.63;;;;;;;;;;3531631;40;20035;-67
2021/05/08 01:25:33;;;;;;;7.78;4.60;;;4.50;99.90;;;;;;3531426;40;20039;-68
2021/05/08 01:28:01;;;;;;;9.50;4.97;;;4.50;99.90;;;;;;3530322;40;20042;-67
2021/05/08 01:30:36;;;;;;;8.55;4.75;;;4.50;99.90;;;;;;3531381;40;20769;-66
2021/05/08 01:33:08;;;;;;;9.80;5.00;;;4.40;99.90;;;;;;3532117;40;20740;-66
2021/05/08 01:35:35;;;;;;;8.48;4.80;;;4.30;99.90;;;;;;3533030;40;20043;-67
2021/05/08 01:38:02;;;;;;;9.05;5.53;;;4.30;99.90;;;;;;3540076;40;20045;-67
2021/05/08 01:40:30;;;;;;;8.60;4.85;;;4.00;99.90;;;;;;3532429;40;20047;-66
2021/05/08 01:42:57;;;;;;;10.40;5.38;;;4.30;99.90;;;;;;3531908;40;20031;-66
2021/05/08 01:45:24;;;;;;;9.15;4.80;;;4.30;99.90;;;;;;3540128;40;20038;-67
2021/05/08 01:47:54;;;;;;;8.50;4.68;;;;;;;;;;3533328;40;20122;-67
2021/05/08 01:50:23;;;;;;;9.32;4.95;;;4.30;99.90;;;;;;3531426;40;20075;-67
2021/05/08 01:52:50;;;;;;;6.60;4.57;;;4.70;99.90;;;;;;3530988;40;20690;-67
2021/05/08 01:55:23;;;;;;;8.02;4.65;;;4.50;99.90;;;;;;3533586;40;20034;-67
2021/05/08 01:57:54;;;;;;;7.63;5.00;;;4.40;99.90;;;;;;3532695;40;20074;-66
2021/05/08 02:00:42;;;;;;;6.20;4.10;;;3.90;99.90;;;;;;3531892;40;20039;-67
2021/05/08 02:03:08;;;;;;;12.27;4.97;;;4.50;99.90;;;;;;3532556;40;20114;-67
2021/05/08 02:05:40;;;;;;;10.80;5.15;;;4.50;99.90;;;;;;3532912;40;20137;-67
2021/05/08 02:08:13;;;;;;;12.40;5.72;;;4.20;99.90;;;;;;3532628;40;20046;-67
2021/05/08 02:10:40;;;;;;;7.72;4.93;;;4.20;99.90;;;;;;3531234;40;20043;-67
2021/05/08 02:13:08;;;;;;;8.18;4.68;;;4.30;99.90;;;;;;3532653;40;20600;-67
2021/05/08 02:15:35;;;;;;;6.90;4.65;;;4.30;99.90;;;;;;3532488;40;20082;-59
2021/05/08 02:18:04;;;;;;;7.63;4.68;;;4.10;99.90;;;;;;3539306;40;20057;-67
2021/05/08 02:20:33;;;;;;;8.95;5.38;;;4.20;99.90;;;;;;3530971;40;20111;-67
2021/05/08 02:23:02;;;;;;;8.50;4.55;;;4.30;99.90;;;;;;3532826;40;20074;-67
2021/05/08 02:25:29;;;;;;;7.70;4.75;;;;;;;;;;3532480;40;20070;-67
2021/05/08 02:27:55;;;;;;;7.88;4.85;;;4.20;99.90;;;;;;3530574;40;20030;-67
2021/05/08 02:30:23;;;;;;;8.07;5.25;;;3.90;99.90;;;;;;3532047;40;20130;-67
2021/05/08 02:32:50;;;;;;;10.85;5.13;;;4.10;99.90;;;;;;3531965;40;20051;-66
2021/05/08 02:35:18;;;;;;;8.57;4.85;;;3.80;99.90;;;;;;3529948;40;20031;-59
2021/05/08 02:37:45;;;;;;;8.60;4.82;;;3.70;99.90;;;;;;3531930;40;20047;-59
2021/05/08 02:40:17;;;;;;;17.63;6.75;;;3.50;99.90;;;;;;3531934;40;20039;-59
2021/05/08 02:42:43;;;;;;;10.70;5.68;;;3.60;99.90;;;;;;3527035;40;20658;-59
2021/05/08 02:45:11;;;;;;;9.15;5.60;;;3.50;99.90;;;;;;3532237;40;20047;-59
2021/05/08 02:47:39;;;;;;;10.73;5.72;;;3.50;99.90;;;;;;3540401;40;20039;-59
2021/05/08 02:50:06;;;;;;;10.32;6.18;;;3.40;99.90;;;;;;3531368;40;20055;-59
2021/05/08 02:52:34;;;;;;;11.57;7.38;;;3.40;99.90;;;;;;3540459;40;20045;-59
2021/05/08 02:55:00;;;;;;;9.35;7.15;;;3.30;99.90;;;;;;3533744;40;20425;-59
2021/05/08 02:57:26;;;;;;;9.32;6.00;;;3.40;99.90;;;;;;3534044;40;20046;-60
2021/05/08 02:59:52;;;;;;;9.82;5.60;;;3.30;99.90;;;;;;3539406;40;20102;-58
2021/05/08 03:02:18;;;;;;;8.07;5.30;;;3.30;99.90;;;;;;3539813;40;20035;-59
2021/05/08 03:04:44;;;;;;;11.75;5.78;;;3.30;99.90;;;;;;3533306;40;20494;-59
2021/05/08 03:07:10;;;;;;;8.90;5.63;;;3.30;99.90;;;;;;3539295;40;20591;-59
2021/05/08 03:09:36;;;;;;;9.25;5.05;;;3.40;99.90;;;;;;3532262;40;20031;-58
2021/05/08 03:12:04;;;;;;;9.75;5.10;;;3.50;99.90;;;;;;3523617;40;20035;-59
2021/05/08 03:14:31;;;;;;;11.63;5.38;;;3.50;99.90;;;;;;3539406;40;20039;-59
2021/05/08 03:16:57;;;;;;;10.10;5.25;;;3.60;99.90;;;;;;3532738;40;20039;-59
2021/05/08 03:19:24;;;;;;;9.98;5.22;;;3.60;99.90;;;;;;3532244;40;20035;-59
2021/05/08 03:21:50;;;;;;;10.00;5.50;;;3.60;99.90;;;;;;3523078;40;20128;-59
2021/05/08 03:24:16;;;;;;;15.13;6.53;;;3.70;99.90;;;;;;3531186;40;20810;-59
2021/05/08 03:26:46;;;;;;;12.93;6.25;;;3.70;99.90;;;;;;3529886;40;20043;-59
2021/05/08 03:29:12;;;;;;;12.98;6.82;;;3.90;99.90;;;;;;3532282;40;20045;-59
2021/05/08 03:31:39;;;;;;;13.15;6.68;;;3.50;99.90;;;;;;3533109;40;20039;-59
2021/05/08 03:34:04;;;;;;;11.23;6.18;;;3.60;99.90;;;;;;3532077;40;20035;-60
2021/05/08 03:36:31;;;;;;;7.97;5.32;;;;;;;;;;3533074;40;20435;-59
2021/05/08 03:38:57;;;;;;;10.13;4.93;;;;;;;;;;3533033;40;20108;-59
2021/05/08 03:41:23;;;;;;;12.80;4.80;;;3.70;99.90;;;;;;3532574;40;20031;-59
2021/05/08 03:43:49;;;;;;;6.18;4.22;;;4.00;99.90;;;;;;3532668;40;20038;-59
2021/05/08 03:46:15;;;;;;;10.13;4.85;;;3.80;99.90;;;;;;3532842;40;20051;-59
2021/05/08 03:48:41;;;;;;;12.25;7.05;;;;;;;;;;3532663;40;20039;-60
2021/05/08 03:51:07;;;;;;;12.38;5.57;;;4.00;99.90;;;;;;3532575;40;20042;-59
2021/05/08 03:53:33;;;;;;;6.78;5.00;;;3.90;99.90;;;;;;3532596;40;20074;-59
2021/05/08 03:55:59;;;;;;;8.13;4.70;;;4.00;99.90;;;;;;3532403;40;20558;-59
2021/05/08 03:58:29;;;;;;;8.98;4.72;;;4.10;99.90;;;;;;3532331;40;20122;-59
2021/05/08 04:00:55;;;;;;;6.15;4.20;;;;;;;;;;3532052;40;20541;-58
2021/05/08 04:03:21;;;;;;;7.30;4.07;;;4.10;99.90;;;;;;3532469;40;20043;-59
2021/05/08 04:05:53;;;;;;;10.38;4.18;;;4.70;99.90;;;;;;3532890;40;20043;-59
2021/05/08 04:08:19;;;;;;;8.43;4.18;;;4.20;99.90;;;;;;3532562;40;20420;-59
2021/05/08 04:10:49;;;;;;;7.55;4.13;;;4.30;99.90;;;;;;3532351;40;20049;-59
2021/05/08 04:13:16;;;;;;;7.22;4.22;;;4.40;99.90;;;;;;3532339;40;20121;-59
2021/05/08 04:15:42;;;;;;;8.88;4.50;;;4.50;99.90;;;;;;3531698;40;20039;-59
2021/05/08 04:18:08;;;;;;;7.70;3.92;;;4.60;99.90;;;;;;3532033;40;20429;-59
2021/05/08 04:20:34;;;;;;;6.20;3.90;;;4.70;99.90;;;;;;3531827;40;20050;-60
2021/05/08 04:23:00;;;;;;;7.20;4.03;;;4.70;99.90;;;;;;3532249;40;20035;-59
2021/05/08 04:25:27;;;;;;;6.40;4.72;;;4.90;99.90;;;;;;3531848;40;20038;-59
2021/05/08 04:27:53;;;;;;;12.75;5.45;;;;;;;;;;3532082;40;20050;-59
2021/05/08 04:30:20;;;;;;;5.50;3.90;;;4.90;99.90;;;;;;3532242;40;20046;-59
2021/05/08 04:32:46;;;;;;;8.20;4.15;;;4.80;99.90;;;;;;3531557;40;20050;-60
2021/05/08 04:35:12;;;;;;;6.15;4.15;;;;;;;;;;3532237;40;20120;-62
2021/05/08 04:37:37;;;;;;;5.97;3.90;;;4.70;99.90;;;;;;3531295;40;20043;-62
2021/05/08 04:40:04;;;;;;;6.85;3.97;;;4.70;99.90;;;;;;3532002;40;20038;-62
2021/05/08 04:42:30;;;;;;;9.05;3.53;;;5.30;99.90;;;;;;3532050;40;20046;-59
2021/05/08 04:44:56;;;;;;;7.05;4.22;;;4.80;99.90;;;;;;3531774;40;20684;-60
2021/05/08 04:47:22;;;;;;;8.63;5.05;;;4.90;99.90;;;;;;3532331;40;20050;-60
2021/05/08 04:49:48;;;;;;;4.70;3.35;;;5.30;99.90;;;;;;3531660;40;20141;-68
2021/05/08 04:52:14;;;;;;;7.80;3.95;;;;;;;;;;3532823;40;20460;-68
2021/05/08 04:54:40;;;;;;;9.60;4.28;;;5.60;99.90;;;;;;3532702;40;20046;-68
2021/05/08 04:57:06;;;;;;;7.22;4.35;;;;;;;;;;3532666;40;20051;-66
2021/05/08 04:59:32;;;;;;;7.38;4.28;;;;;;;;;;3522900;40;20042;-66
2021/05/08 05:02:00;;;;;;;7.28;3.70;;;;;;;;;;3532406;40;20039;-66
2021/05/08 05:04:26;;;;;;;14.68;6.82;;;;;;;;;;3531633;40;20055;-67
2021/05/08 05:06:52;;;;;;;273.38;88.13;;;;;;;;;;3531703;40;20686;-66
2021/05/08 05:09:19;;;;;;;141.45;47.30;;;;;;;;;;3532304;40;20047;-66
2021/05/08 05:11:45;;;;;;;92.88;53.15;;;;;;;;;;3532083;40;20121;-66
2021/05/08 05:14:11;;;;;;;51.20;29.20;;;;;;;;;;3531068;40;20027;-65
2021/05/08 05:16:36;;;;;;;36.38;20.63;;;5.10;99.90;;;;;;3531789;40;20097;-65
2021/05/08 05:19:03;;;;;;;40.70;23.30;;;5.60;99.90;;;;;;3530733;40;20584;-66
2021/05/08 05:21:30;;;;;;;45.60;21.88;;;;;;;;;;3538392;40;20035;-66
2021/05/08 05:23:56;;;;;;;54.72;25.42;;;;;;;;;;3530791;40;20102;-66
2021/05/08 05:26:22;;;;;;;15.65;7.75;;;;;;;;;;3530401;40;20027;-66
2021/05/08 05:28:48;;;;;;;45.08;22.35;;;;;;;;;;3530936;40;20030;-67
2021/05/08 05:31:17;;;;;;;58.08;26.98;;;6.20;99.90;;;;;;3530864;40;20404;-65
2021/05/08 05:33:43;;;;;;;14.88;6.60;;;;;;;;;;3529966;40;20610;-66
2021/05/08 05:36:09;;;;;;;10.48;5.65;;;6.20;99.90;;;;;;3531463;40;20027;-66
2021/05/08 05:38:34;;;;;;;11.32;5.03;;;6.30;99.90;;;;;;3531337;40;20176;-66
2021/05/08 05:41:00;;;;;;;12.00;4.43;;;6.30;99.90;;;;;;3531729;40;20424;-66
2021/05/08 05:43:26;;;;;;;10.70;4.05;;;6.90;99.90;;;;;;3531509;40;20606;-66
2021/05/08 05:45:52;;;;;;;9.85;5.15;;;;;;;;;;3538571;40;20070;-66
2021/05/08 05:48:19;;;;;;;9.13;4.57;;;;;;;;;;3531228;40;20043;-66
2021/05/08 05:50:46;;;;;;;6.07;3.97;;;;;;;;;;3531085;40;20326;-66
2021/05/08 05:53:13;;;;;;;14.63;3.90;;;;;;;;;;3530813;40;20043;-66
2021/05/08 05:55:38;;;;;;;6.28;3.45;;;7.30;99.90;;;;;;3531562;40;20113;-66
2021/05/08 05:58:04;;;;;;;9.55;3.83;;;7.10;99.90;;;;;;3529417;40;20062;-67
2021/05/08 06:00:30;;;;;;;8.70;3.33;;;8.00;99.90;;;;;;3530714;40;20576;-66
2021/05/08 06:02:56;;;;;;;7.20;3.53;;;7.70;99.90;;;;;;3529794;40;20073;-67
2021/05/08 06:05:21;;;;;;;11.27;3.75;;;9.20;99.90;;;;;;3530399;40;20050;-66
2021/05/08 06:07:47;;;;;;;9.18;4.47;;;8.20;99.90;;;;;;3531219;40;20042;-66
2021/05/08 06:10:14;;;;;;;10.45;3.58;;;8.30;99.90;;;;;;3530798;40;20132;-67
2021/05/08 06:12:40;;;;;;;5.95;3.03;;;8.20;99.90;;;;;;3530918;40;20437;-66
2021/05/08 06:15:08;;;;;;;8.95;3.72;;;7.90;99.90;;;;;;3531498;40;20058;-66
2021/05/08 06:17:34;;;;;;;11.07;3.50;;;8.20;99.90;;;;;;3532788;40;20039;-66
2021/05/08 06:20:00;;;;;;;5.65;3.42;;;8.40;99.90;;;;;;3532251;40;20031;-66
2021/05/08 06:22:26;;;;;;;7.88;3.40;;;8.20;99.90;;;;;;3531871;40;20030;-66
2021/05/08 06:24:51;;;;;;;7.85;3.83;;;8.30;99.90;;;;;;3531855;40;20142;-67
2021/05/08 06:27:18;;;;;;;13.27;6.47;;;;;;;;;;3531522;40;20596;-66
2021/05/08 06:29:43;;;;;;;11.07;4.18;;;7.60;99.90;;;;;;3531561;40;20046;-66
2021/05/08 06:32:09;;;;;;;11.02;4.60;;;8.30;99.90;;;;;;3530092;40;20148;-65
2021/05/08 06:34:35;;;;;;;77.10;50.72;;;8.20;99.90;;;;;;3531123;40;20039;-66
2021/05/08 06:37:02;;;;;;;10.32;5.75;;;8.20;99.90;;;;;;3532135;40;20031;-66
2021/05/08 06:39:29;;;;;;;9.80;6.38;;;8.20;99.90;;;;;;3532180;40;20763;-66
2021/05/08 06:41:55;;;;;;;40.33;23.23;;;8.20;99.90;;;;;;3531924;40;20031;-66
2021/05/08 06:44:24;;;;;;;11.32;4.20;;;;;;;;;;3532533;40;20048;-66
2021/05/08 06:46:50;;;;;;;14.57;5.90;;;;;;;;;;3533627;40;20043;-66
2021/05/08 06:49:16;;;;;;;13.90;7.65;;;;;;;;;;3532867;40;20070;-66
2021/05/08 06:51:42;;;;;;;11.98;4.28;;;8.30;99.90;;;;;;3532304;40;20031;-66
2021/05/08 06:54:07;;;;;;;6.45;4.07;;;8.60;99.90;;;;;;3532520;40;20059;-66
2021/05/08 06:56:33;;;;;;;10.88;4.75;;;;;;;;;;3532592;40;20035;-66
2021/05/08 06:58:59;;;;;;;18.13;7.30;;;;;;;;;;3533489;40;20016;-66
2021/05/08 07:01:26;;;;;;;13.88;5.13;;;;;;;;;;3533274;40;20336;-66
2021/05/08 07:03:52;;;;;;;14.40;8.00;;;;;;;;;;3533430;40;20724;-66
2021/05/08 07:06:18;;;;;;;14.75;5.00;;;;;;;;;;3533633;40;20078;-66
2021/05/08 07:08:44;;;;;;;13.35;6.18;;;;;;;;;;3532225;40;20125;-66
2021/05/08 07:11:10;;;;;;;7.47;3.42;;;;;;;;;;3532302;40;20046;-66
2021/05/08 07:13:36;;;;;;;33.10;19.67;;;;;;;;;;3531992;40;20118;-66
2021/05/08 07:16:02;;;;;;;12.90;3.17;;;;;;;;;;3531870;40;20031;-66
2021/05/08 07:18:28;;;;;;;31.30;15.05;;;;;;;;;;3531820;40;20031;-66
2021/05/08 07:20:54;;;;;;;42.17;18.30;;;;;;;;;;3531264;40;20065;-66
2021/05/08 07:23:21;;;;;;;13.63;3.75;;;;;;;;;;3532321;40;20730;-66
2021/05/08 07:25:47;;;;;;;8.43;4.13;;;;;;;;;;3531150;40;20332;-66
2021/05/08 07:28:19;;;;;;;27.02;8.07;;;9.60;99.90;;;;;;3531912;40;20035;-66
2021/05/08 07:30:47;;;;;;;10.40;4.25;;;10.80;99.90;;;;;;3530279;40;20062;-66
2021/05/08 07:33:14;;;;;;;7.30;3.13;;;10.00;99.90;;;;;;3531932;40;20030;-59
2021/05/08 07:35:40;;;;;;;8.82;3.25;;;10.50;99.90;;;;;;3540001;40;20039;-59
2021/05/08 07:38:07;;;;;;;8.50;3.15;;;9.80;99.90;;;;;;3532675;40;20039;-59
2021/05/08 07:40:34;;;;;;;9.68;2.97;;;9.90;99.90;;;;;;3532905;40;20051;-59
2021/05/08 07:43:00;;;;;;;9.93;3.00;;;9.90;99.90;;;;;;3532728;40;20042;-59
2021/05/08 07:45:29;;;;;;;8.70;3.20;;;11.00;99.90;;;;;;3533037;40;20043;-59
2021/05/08 07:47:57;;;;;;;5.05;3.00;;;10.40;99.90;;;;;;3533015;40;20024;-59
2021/05/08 07:50:24;;;;;;;11.88;2.70;;;10.80;99.90;;;;;;3533099;40;20035;-59
2021/05/08 07:52:50;;;;;;;7.55;3.28;;;10.90;99.90;;;;;;3531508;40;20050;-60
2021/05/08 07:55:16;;;;;;;5.32;2.97;;;;;;;;;;3532970;40;20714;-67
2021/05/08 07:57:43;;;;;;;13.13;2.80;;;;;;;;;;3532578;40;20034;-66
2021/05/08 08:00:11;;;;;;;9.32;3.35;;;12.10;99.90;;;;;;3532192;40;20427;-66
2021/05/08 08:02:37;;;;;;;9.52;3.67;;;;;;;;;;3532373;40;20055;-65
2021/05/08 08:05:05;;;;;;;9.25;3.10;;;11.70;99.90;;;;;;3532396;40;20523;-67
2021/05/08 08:07:31;;;;;;;11.15;3.13;;;;;;;;;;3532715;40;20043;-66
2021/05/08 08:09:58;;;;;;;7.38;3.05;;;;;;;;;;3532042;40;20051;-65
2021/05/08 08:12:24;;;;;;;8.88;3.55;;;12.00;99.80;;;;;;3532147;40;20047;-66
2021/05/08 08:14:51;;;;;;;8.98;3.38;;;12.30;99.90;;;;;;3532543;40;20038;-66
2021/05/08 08:17:17;;;;;;;14.63;8.10;;;12.00;98.90;;;;;;3531676;40;20039;-66
2021/05/08 08:19:47;;;;;;;12.55;3.72;;;12.00;99.90;;;;;;3531914;40;20038;-66
2021/05/08 08:22:14;;;;;;;7.53;4.13;;;11.70;98.80;;;;;;3532006;40;20031;-67
2021/05/08 08:24:40;;;;;;;10.38;3.90;;;11.50;99.90;;;;;;3532217;40;20042;-66
2021/05/08 08:27:06;;;;;;;8.43;4.03;;;11.90;99.00;;;;;;3531959;40;20141;-66
2021/05/08 08:29:31;;;;;;;7.38;3.88;;;11.60;96.40;;;;;;3532315;40;20054;-59
2021/05/08 08:31:58;;;;;;;10.38;4.50;;;;;;;;;;3532113;40;20125;-59
2021/05/08 08:34:24;;;;;;;8.85;4.00;;;;;;;;;;3532479;40;20065;-60
2021/05/08 08:36:50;;;;;;;9.65;5.13;;;;;;;;;;3530771;40;20144;-59
2021/05/08 08:39:16;;;;;;;13.85;4.00;;;12.60;99.90;;;;;;3530998;40;20057;-66
2021/05/08 08:41:42;;;;;;;5.90;3.75;;;;;;;;;;3531029;40;20483;-66
2021/05/08 08:44:11;;;;;;;10.57;5.57;;;12.20;96.70;;;;;;3531842;40;20077;-66
2021/05/08 08:46:43;;;;;;;10.50;4.50;;;12.20;96.40;;;;;;3531113;40;20043;-66
2021/05/08 08:49:11;;;;;;;8.45;4.00;;;12.80;97.30;;;;;;3532336;40;20041;-67
2021/05/08 08:51:38;;;;;;;11.10;5.28;;;13.60;95.30;;;;;;3530684;40;20459;-66
2021/05/08 08:54:04;;;;;;;9.02;4.90;;;;;;;;;;3531460;40;20034;-66
2021/05/08 08:56:34;;;;;;;13.02;5.63;;;13.10;92.00;;;;;;3531577;40;20070;-67
2021/05/08 08:59:04;;;;;;;7.80;5.82;;;13.10;91.50;;;;;;3532081;40;20046;-67
2021/05/08 09:01:30;;;;;;;8.00;5.05;;;12.80;93.80;;;;;;3531988;40;20031;-67
2021/05/08 09:03:56;;;;;;;8.65;4.68;;;12.70;93.80;;;;;;3531889;40;20046;-67
2021/05/08 09:06:23;;;;;;;8.63;4.43;;;12.70;94.20;;;;;;3532777;40;20049;-66
2021/05/08 09:08:51;;;;;;;13.90;4.68;;;12.60;94.10;;;;;;3531152;40;20042;-66
2021/05/08 09:11:24;;;;;;;10.40;4.57;;;12.40;95.40;;;;;;3539449;40;20039;-66
2021/05/08 09:14:28;;;;;;;7.63;3.80;;;12.90;93.50;;;;;;3531601;40;20120;-66
2021/05/08 09:17:25;;;;;;;8.93;4.47;;;13.10;92.80;;;;;;3519996;40;20885;-66
2021/05/08 09:19:54;;;;;;;18.17;11.90;;;13.30;91.60;;;;;;3530376;40;20050;-66
2021/05/08 09:22:37;;;;;;;9.77;6.10;;;13.50;91.50;;;;;;3530167;40;20043;-67
2021/05/08 09:25:06;;;;;;;7.60;4.53;;;13.70;90.00;;;;;;3530033;40;20049;-66
2021/05/08 09:27:34;;;;;;;7.88;4.57;;;13.40;90.20;;;;;;3531511;40;20038;-66
2021/05/08 09:30:14;;;;;;;68.93;40.72;;;13.00;91.80;;;;;;3530589;40;20042;-66
2021/05/08 09:32:44;;;;;;;31.30;15.93;;;13.10;91.70;;;;;;3530417;40;20132;-66
2021/05/08 09:35:16;;;;;;;22.45;11.85;;;12.90;91.00;;;;;;3531371;40;20417;-66
2021/05/08 09:37:43;;;;;;;8.73;4.60;;;13.10;91.60;;;;;;3529258;40;20130;-66
2021/05/08 09:40:22;;;;;;;21.73;12.85;;;13.60;89.40;;;;;;3522191;40;20589;-67
2021/05/08 09:42:56;;;;;;;27.02;15.30;;;14.30;88.70;;;;;;3529614;40;20350;-66
2021/05/08 09:45:24;;;;;;;44.85;22.45;;;14.80;85.90;;;;;;3530110;40;20038;-67
2021/05/08 09:47:51;;;;;;;15.10;7.63;;;15.50;74.90;;;;;;3531050;40;20452;-67
2021/05/08 09:50:26;;;;;;;13.25;7.05;;;15.90;75.50;;;;;;3531076;40;20054;-66
2021/05/08 09:52:53;;;;;;;13.27;7.82;;;15.70;69.50;;;;;;3531461;40;20082;-67
2021/05/08 09:55:21;;;;;;;29.35;14.68;;;15.90;72.30;;;;;;3532002;40;20043;-66
2021/05/08 09:58:02;;;;;;;26.80;13.98;;;15.90;70.50;;;;;;3532321;40;20035;-66
2021/05/08 10:00:39;;;;;;;16.88;8.43;;;16.20;67.60;;;;;;3532088;40;20417;-66
2021/05/08 10:03:10;;;;;;;6.97;3.90;;;16.30;66.30;;;;;;3531963;40;20700;-66
2021/05/08 10:05:37;;;;;;;9.55;4.55;;;16.30;65.80;;;;;;3539593;40;20062;-66
2021/05/08 10:08:04;;;;;;;10.88;4.35;;;16.00;65.40;;;;;;3532058;40;20031;-67
2021/05/08 10:10:30;;;;;;;12.63;5.88;;;16.10;65.20;;;;;;3533343;40;20529;-65
2021/05/08 10:12:56;;;;;;;9.07;5.00;;;16.00;65.70;;;;;;3532353;40;20037;-67
2021/05/08 10:15:23;;;;;;;6.30;3.25;;;15.70;65.90;;;;;;3533146;40;20089;-66
2021/05/08 10:17:51;;;;;;;7.72;3.65;;;15.80;65.20;;;;;;3539301;40;20118;-66
2021/05/08 10:20:19;;;;;;;6.20;4.32;;;16.10;67.80;;;;;;3533267;40;20031;-66
2021/05/08 10:22:58;;;;;;;13.25;7.25;;;16.40;66.20;;;;;;3532600;40;20392;-67
2021/05/08 10:25:25;;;;;;;5.28;2.95;;;16.70;64.90;;;;;;3532111;40;20034;-67
2021/05/08 10:27:51;;;;;;;5.82;3.60;;;16.90;60.80;;;;;;3530341;40;20075;-66
2021/05/08 10:30:25;;;;;;;6.32;3.55;;;16.90;61.50;;;;;;3531442;40;20041;-67
2021/05/08 10:32:51;;;;;;;13.03;6.93;;;16.90;62.20;;;;;;3532378;40;20097;-66
2021/05/08 10:35:36;;;;;;;12.52;7.03;;;17.10;63.50;;;;;;3532253;40;20059;-67
2021/05/08 10:38:20;;;;;;;9.82;3.80;;;17.30;59.50;;;;;;3537993;40;20050;-66
2021/05/08 10:40:53;;;;;;;3.88;2.95;;;17.40;60.20;;;;;;3531218;40;20042;-67
2021/05/08 10:43:41;;;;;;;7.63;3.33;;;17.00;62.00;;;;;;3531195;40;20046;-67
2021/05/08 10:46:11;;;;;;;5.85;3.15;;;16.70;60.60;;;;;;3531715;40;20691;-67
2021/05/08 10:48:37;;;;;;;5.82;2.83;;;16.50;60.40;;;;;;3530495;40;20197;-67
2021/05/08 10:51:04;;;;;;;4.65;3.33;;;16.50;60.50;;;;;;3531913;40;20734;-66
2021/05/08 10:53:41;;;;;;;5.68;3.05;;;16.50;59.80;;;;;;3531273;40;20049;-66
2021/05/08 10:56:08;;;;;;;8.82;3.35;;;16.50;60.40;;;;;;3531593;40;20197;-67
2021/05/08 10:58:35;;;;;;;4.35;2.80;;;16.50;60.00;;;;;;3531336;40;20082;-67
2021/05/08 11:01:09;;;;;;;7.30;3.45;;;16.70;58.20;;;;;;3531414;40;20125;-67
2021/05/08 11:03:44;;;;;;;6.10;2.78;;;16.60;58.30;;;;;;3538387;40;20062;-66
2021/05/08 11:06:10;;;;;;;6.97;3.38;;;16.50;60.50;;;;;;3530735;40;20042;-67
2021/05/08 11:08:35;;;;;;;5.93;3.28;;;16.50;62.70;;;;;;3531230;40;20046;-66
2021/05/08 11:11:06;;;;;;;4.82;2.90;;;16.40;62.10;;;;;;3532632;40;20589;-67
2021/05/08 11:13:41;;;;;;;7.53;3.60;;;16.20;60.70;;;;;;3530712;40;20069;-67
2021/05/08 11:16:11;;;;;;;5.78;3.70;;;16.50;59.00;;;;;;3522540;40;20047;-67
2021/05/08 11:18:45;;;;;;;6.70;3.03;;;16.70;60.80;;;;;;3523046;40;20087;-66
2021/05/08 11:21:11;;;;;;;6.63;3.50;;;17.80;60.10;;;;;;3519030;40;20139;-67
2021/05/08 11:24:01;;;;;;;6.88;2.92;;;16.80;58.70;;;;;;3522654;40;20040;-67
2021/05/08 11:26:29;;;;;;;5.20;3.08;;;17.70;65.20;;;;;;3521217;40;20051;-67
2021/05/08 11:29:11;;;;;;;5.47;3.08;;;16.90;56.30;;;;;;3520770;40;20039;-67
2021/05/08 11:31:48;;;;;;;7.88;2.80;;;17.00;57.30;;;;;;3521370;40;20047;-66
2021/05/08 11:34:21;;;;;;;9.30;3.92;;;17.30;56.40;;;;;;3521358;40;20067;-67
2021/05/08 11:36:55;;;;;;;7.40;3.55;;;17.90;52.60;;;;;;3520507;40;20416;-67
2021/05/08 11:39:25;;;;;;;7.05;2.70;;;18.00;53.50;;;;;;3521571;40;20035;-67
2021/05/08 11:41:57;;;;;;;4.95;3.03;;;18.30;55.00;;;;;;3521898;40;20137;-66
2021/05/08 11:44:24;;;;;;;4.28;2.90;;;18.00;53.00;;;;;;3521565;40;20032;-67
2021/05/08 11:46:54;;;;;;;4.90;2.35;;;17.70;53.00;;;;;;3523106;40;20035;-67
2021/05/08 11:49:24;;;;;;;25.50;5.50;;;17.30;53.10;;;;;;3522640;40;20054;-67
2021/05/08 11:51:50;;;;;;;51.45;10.35;;;17.20;54.90;;;;;;3529522;40;20126;-67
2021/05/08 11:54:16;;;;;;;51.33;7.25;;;17.90;53.60;;;;;;3523258;40;20044;-67
2021/05/08 11:56:41;;;;;;;167.70;18.55;;;18.90;50.80;;;;;;3523406;40;20031;-66
2021/05/08 11:59:07;;;;;;;3.50;2.25;;;19.70;50.60;;;;;;3522319;40;20051;-67
2021/05/08 12:01:34;;;;;;;34.30;8.98;;;20.60;47.40;;;;;;3522848;40;20059;-68
2021/05/08 12:04:02;;;;;;;5.88;2.10;;;21.50;47.50;;;;;;3529498;40;20745;-67
2021/05/08 12:06:29;;;;;;;39.08;6.60;;;21.90;47.30;;;;;;3520714;40;20394;-67
2021/05/08 12:08:56;;;;;;;11.93;2.72;;;21.10;46.10;;;;;;3521213;40;20034;-67
2021/05/08 12:11:23;;;;;;;11.23;3.47;;;20.40;48.00;;;;;;3512906;40;20032;-67
2021/05/08 12:13:49;;;;;;;5.03;2.80;;;20.30;48.90;;;;;;3520538;40;20024;-67
2021/05/08 12:16:15;;;;;;;3.80;2.75;;;20.40;47.80;;;;;;3521227;40;20383;-67
2021/05/08 12:18:42;;;;;;;6.30;2.30;;;20.60;45.90;;;;;;3521788;40;20031;-67
2021/05/08 12:21:11;;;;;;;8.10;3.70;;;20.80;45.30;;;;;;3522018;40;20672;-67
2021/05/08 12:23:38;;;;;;;7.32;3.00;;;20.60;45.10;;;;;;3521573;40;20039;-66
2021/05/08 12:26:19;;;;;;;6.00;2.88;;;20.40;44.80;;;;;;3521789;40;20035;-68
2021/05/08 12:28:45;;;;;;;6.05;3.13;;;20.50;46.70;;;;;;3520215;40;20125;-68
2021/05/08 12:31:22;;;;;;;4.95;2.10;;;21.00;44.40;;;;;;3521678;40;20055;-69
2021/05/08 12:33:48;;;;;;;3.88;2.30;;;21.60;43.10;;;;;;3522508;40;20047;-68
2021/05/08 12:36:16;;;;;;;4.13;2.25;;;22.00;44.00;;;;;;3522240;40;20035;-68
2021/05/08 12:38:43;;;;;;;6.40;2.90;;;21.80;42.40;;;;;;3522073;40;20137;-68
2021/05/08 12:41:28;;;;;;;6.05;2.20;;;22.10;40.90;;;;;;3522167;40;20031;-67
2021/05/08 12:44:05;;;;;;;3.30;2.22;;;22.30;42.60;;;;;;3520706;40;20040;-66
2021/05/08 12:46:51;;;;;;;3.58;2.08;;;22.80;43.70;;;;;;3521717;40;20046;-67
2021/05/08 12:49:20;;;;;;;7.63;2.25;;;23.10;42.20;;;;;;3522049;40;20031;-67
2021/05/08 12:51:45;;;;;;;3.50;1.98;;;22.70;43.30;;;;;;3521883;40;20046;-60
2021/05/08 12:54:26;;;;;;;4.28;2.35;;;23.00;43.00;;;;;;3521962;40;20031;-60
2021/05/08 12:56:55;;;;;;;3.92;2.22;;;23.00;39.70;;;;;;3522005;40;20046;-60
2021/05/08 12:59:30;;;;;;;3.00;2.00;;;23.30;40.60;;;;;;3521860;40;20040;-60
2021/05/08 13:02:19;;;;;;;3.80;1.95;;;23.10;40.10;;;;;;3522005;40;20389;-64
2021/05/08 13:04:50;;;;;;;4.10;1.92;;;22.80;40.00;;;;;;3521975;40;20555;-60
2021/05/08 13:07:26;;;;;;;2.88;1.73;;;23.10;39.90;;;;;;3521344;40;20043;-60
2021/05/08 13:10:15;;;;;;;4.32;1.67;;;23.60;40.30;;;;;;3527898;40;20042;-60